sensor_id;sensor_type;location;lat;lon;timestamp;P1;durP1;ratioP1;P2;durP2;ratioP2
25449;SDS011;13371;52.080;5.624;2023-05-21T00:00:35;4.00;;;2.22;;
25449;SDS011;13371;52.080;5.624;2023-05-21T00:03:00;3.53;;;2.13;;
25449;SDS011;13371;52.080;5.624;2023-05-21T00:05:26;7.07;;;3.00;;
25449;SDS011;13371;52.080;5.624;2023-05-21T00:07:52;9.40;;;2.10;;
25449;SDS011;13371;52.080;5.624;2023-05-21T00:10:18;5.32;;;2.05;;
25449;SDS011;13371;52.080;5.624;2023-05-21T00:12:44;4.45;;;2.58;;
25449;SDS011;13371;52.080;5.624;2023-05-21T00:15:11;3.22;;;2.08;;
25449;SDS011;13371;52.080;5.624;2023-05-21T00:17:37;3.78;;;2.15;;
25449;SDS011;13371;52.080;5.624;2023-05-21T00:20:03;5.15;;;2.15;;
25449;SDS011;13371;52.080;5.624;2023-05-21T00:22:31;3.13;;;2.00;;
25449;SDS011;13371;52.080;5.624;2023-05-21T00:24:57;4.10;;;2.10;;
25449;SDS011;13371;52.080;5.624;2023-05-21T00:27:23;3.95;;;2.15;;
25449;SDS011;13371;52.080;5.624;2023-05-21T00:29:49;4.18;;;2.45;;
25449;SDS011;13371;52.080;5.624;2023-05-21T00:32:14;4.40;;;2.40;;
25449;SDS011;13371;52.080;5.624;2023-05-21T00:34:40;6.15;;;2.30;;
25449;SDS011;13371;52.080;5.624;2023-05-21T00:37:06;4.65;;;2.45;;
25449;SDS011;13371;52.080;5.624;2023-05-21T00:39:33;4.25;;;2.20;;
25449;SDS011;13371;52.080;5.624;2023-05-21T00:41:59;5.15;;;2.40;;
25449;SDS011;13371;52.080;5.624;2023-05-21T00:44:25;4.82;;;2.47;;
25449;SDS011;13371;52.080;5.624;2023-05-21T00:46:52;4.80;;;2.45;;
25449;SDS011;13371;52.080;5.624;2023-05-21T00:49:18;4.20;;;2.30;;
25449;SDS011;13371;52.080;5.624;2023-05-21T00:51:46;6.47;;;2.40;;
25449;SDS011;13371;52.080;5.624;2023-05-21T00:54:12;3.35;;;2.47;;
25449;SDS011;13371;52.080;5.624;2023-05-21T00:56:38;3.88;;;2.50;;
25449;SDS011;13371;52.080;5.624;2023-05-21T00:59:03;4.47;;;2.72;;
25449;SDS011;13371;52.080;5.624;2023-05-21T01:01:30;10.45;;;2.67;;
25449;SDS011;13371;52.080;5.624;2023-05-21T01:04:00;4.72;;;2.58;;
25449;SDS011;13371;52.080;5.624;2023-05-21T01:06:26;4.07;;;2.47;;
25449;SDS011;13371;52.080;5.624;2023-05-21T01:08:52;4.72;;;2.80;;
25449;SDS011;13371;52.080;5.624;2023-05-21T01:11:22;5.30;;;2.78;;
25449;SDS011;13371;52.080;5.624;2023-05-21T01:14:11;6.78;;;3.08;;
25449;SDS011;13371;52.080;5.624;2023-05-21T01:16:39;3.88;;;2.78;;
25449;SDS011;13371;52.080;5.624;2023-05-21T01:19:06;4.85;;;3.08;;
25449;SDS011;13371;52.080;5.624;2023-05-21T01:21:40;3.72;;;2.55;;
25449;SDS011;13371;52.080;5.624;2023-05-21T01:24:08;6.20;;;2.95;;
25449;SDS011;13371;52.080;5.624;2023-05-21T01:26:34;4.85;;;2.70;;
25449;SDS011;13371;52.080;5.624;2023-05-21T01:29:05;7.07;;;3.03;;
25449;SDS011;13371;52.080;5.624;2023-05-21T01:32:16;4.57;;;2.75;;
25449;SDS011;13371;52.080;5.624;2023-05-21T01:34:34;6.63;;;3.10;;
25449;SDS011;13371;52.080;5.624;2023-05-21T01:37:10;6.88;;;3.03;;
25449;SDS011;13371;52.080;5.624;2023-05-21T01:39:41;3.75;;;2.40;;
25449;SDS011;13371;52.080;5.624;2023-05-21T01:42:12;3.88;;;2.55;;
25449;SDS011;13371;52.080;5.624;2023-05-21T01:44:40;5.40;;;3.25;;
25449;SDS011;13371;52.080;5.624;2023-05-21T01:47:07;11.20;;;2.80;;
25449;SDS011;13371;52.080;5.624;2023-05-21T01:49:33;6.57;;;2.90;;
25449;SDS011;13371;52.080;5.624;2023-05-21T01:51:58;5.15;;;2.80;;
25449;SDS011;13371;52.080;5.624;2023-05-21T01:54:26;4.60;;;3.00;;
25449;SDS011;13371;52.080;5.624;2023-05-21T01:56:52;5.30;;;2.90;;
25449;SDS011;13371;52.080;5.624;2023-05-21T01:59:17;7.93;;;3.17;;
25449;SDS011;13371;52.080;5.624;2023-05-21T02:01:44;6.22;;;3.17;;
25449;SDS011;13371;52.080;5.624;2023-05-21T02:04:09;6.70;;;3.20;;
25449;SDS011;13371;52.080;5.624;2023-05-21T02:06:35;8.15;;;3.20;;
25449;SDS011;13371;52.080;5.624;2023-05-21T02:09:03;5.93;;;3.33;;
25449;SDS011;13371;52.080;5.624;2023-05-21T02:11:29;6.10;;;3.45;;
25449;SDS011;13371;52.080;5.624;2023-05-21T02:13:55;5.97;;;3.38;;
25449;SDS011;13371;52.080;5.624;2023-05-21T02:16:21;5.07;;;2.95;;
25449;SDS011;13371;52.080;5.624;2023-05-21T02:18:47;6.13;;;3.28;;
25449;SDS011;13371;52.080;5.624;2023-05-21T02:21:15;5.60;;;3.35;;
25449;SDS011;13371;52.080;5.624;2023-05-21T02:23:41;5.05;;;3.03;;
25449;SDS011;13371;52.080;5.624;2023-05-21T02:26:07;4.68;;;3.25;;
25449;SDS011;13371;52.080;5.624;2023-05-21T02:28:32;5.28;;;3.10;;
25449;SDS011;13371;52.080;5.624;2023-05-21T02:31:00;7.07;;;3.38;;
25449;SDS011;13371;52.080;5.624;2023-05-21T02:33:25;7.93;;;3.28;;
25449;SDS011;13371;52.080;5.624;2023-05-21T02:35:51;6.18;;;3.10;;
25449;SDS011;13371;52.080;5.624;2023-05-21T02:38:16;8.77;;;3.25;;
25449;SDS011;13371;52.080;5.624;2023-05-21T02:40:43;7.88;;;3.83;;
25449;SDS011;13371;52.080;5.624;2023-05-21T02:43:09;6.65;;;3.15;;
25449;SDS011;13371;52.080;5.624;2023-05-21T02:45:35;5.32;;;3.15;;
25449;SDS011;13371;52.080;5.624;2023-05-21T02:48:01;6.60;;;2.90;;
25449;SDS011;13371;52.080;5.624;2023-05-21T02:50:26;7.78;;;3.22;;
25449;SDS011;13371;52.080;5.624;2023-05-21T02:52:52;4.93;;;2.95;;
25449;SDS011;13371;52.080;5.624;2023-05-21T02:55:17;7.22;;;3.38;;
25449;SDS011;13371;52.080;5.624;2023-05-21T02:57:43;4.95;;;3.05;;
25449;SDS011;13371;52.080;5.624;2023-05-21T03:00:09;5.75;;;3.38;;
25449;SDS011;13371;52.080;5.624;2023-05-21T03:02:35;7.85;;;3.78;;
25449;SDS011;13371;52.080;5.624;2023-05-21T03:05:01;8.98;;;3.22;;
25449;SDS011;13371;52.080;5.624;2023-05-21T03:07:26;5.30;;;3.22;;
25449;SDS011;13371;52.080;5.624;2023-05-21T03:09:52;6.32;;;3.03;;
25449;SDS011;13371;52.080;5.624;2023-05-21T03:12:17;7.13;;;4.28;;
25449;SDS011;13371;52.080;5.624;2023-05-21T03:14:43;6.82;;;3.92;;
25449;SDS011;13371;52.080;5.624;2023-05-21T03:17:10;6.40;;;3.45;;
25449;SDS011;13371;52.080;5.624;2023-05-21T03:19:38;5.40;;;3.70;;
25449;SDS011;13371;52.080;5.624;2023-05-21T03:22:06;5.88;;;3.20;;
25449;SDS011;13371;52.080;5.624;2023-05-21T03:24:32;8.85;;;3.15;;
25449;SDS011;13371;52.080;5.624;2023-05-21T03:26:59;5.72;;;3.30;;
25449;SDS011;13371;52.080;5.624;2023-05-21T03:29:30;5.50;;;3.60;;
25449;SDS011;13371;52.080;5.624;2023-05-21T03:31:56;7.90;;;3.20;;
25449;SDS011;13371;52.080;5.624;2023-05-21T03:34:21;6.70;;;3.90;;
25449;SDS011;13371;52.080;5.624;2023-05-21T03:36:48;5.28;;;3.55;;
25449;SDS011;13371;52.080;5.624;2023-05-21T03:39:14;9.20;;;4.07;;
25449;SDS011;13371;52.080;5.624;2023-05-21T03:41:39;5.70;;;3.08;;
25449;SDS011;13371;52.080;5.624;2023-05-21T03:44:05;12.43;;;3.40;;
25449;SDS011;13371;52.080;5.624;2023-05-21T03:46:30;6.35;;;3.75;;
25449;SDS011;13371;52.080;5.624;2023-05-21T03:48:57;6.07;;;3.65;;
25449;SDS011;13371;52.080;5.624;2023-05-21T03:51:23;5.25;;;3.75;;
25449;SDS011;13371;52.080;5.624;2023-05-21T03:53:49;6.18;;;3.90;;
25449;SDS011;13371;52.080;5.624;2023-05-21T03:56:15;7.68;;;3.92;;
25449;SDS011;13371;52.080;5.624;2023-05-21T03:58:41;6.60;;;3.95;;
25449;SDS011;13371;52.080;5.624;2023-05-21T04:01:07;5.80;;;3.20;;
25449;SDS011;13371;52.080;5.624;2023-05-21T04:03:33;6.38;;;3.72;;
25449;SDS011;13371;52.080;5.624;2023-05-21T04:05:59;5.22;;;3.53;;
25449;SDS011;13371;52.080;5.624;2023-05-21T04:08:26;6.85;;;4.07;;
25449;SDS011;13371;52.080;5.624;2023-05-21T04:10:51;5.97;;;3.83;;
25449;SDS011;13371;52.080;5.624;2023-05-21T04:13:17;4.90;;;3.47;;
25449;SDS011;13371;52.080;5.624;2023-05-21T04:15:43;5.97;;;3.60;;
25449;SDS011;13371;52.080;5.624;2023-05-21T04:18:10;5.13;;;3.28;;
25449;SDS011;13371;52.080;5.624;2023-05-21T04:20:42;6.43;;;4.25;;
25449;SDS011;13371;52.080;5.624;2023-05-21T04:23:08;8.25;;;3.85;;
25449;SDS011;13371;52.080;5.624;2023-05-21T04:25:34;6.15;;;3.75;;
25449;SDS011;13371;52.080;5.624;2023-05-21T04:28:00;7.65;;;4.18;;
25449;SDS011;13371;52.080;5.624;2023-05-21T04:30:26;7.57;;;3.95;;
25449;SDS011;13371;52.080;5.624;2023-05-21T04:32:51;9.35;;;3.85;;
25449;SDS011;13371;52.080;5.624;2023-05-21T04:35:18;7.28;;;4.32;;
25449;SDS011;13371;52.080;5.624;2023-05-21T04:37:44;7.70;;;3.83;;
25449;SDS011;13371;52.080;5.624;2023-05-21T04:40:10;9.60;;;4.10;;
25449;SDS011;13371;52.080;5.624;2023-05-21T04:42:45;5.60;;;3.70;;
25449;SDS011;13371;52.080;5.624;2023-05-21T04:45:12;6.55;;;3.75;;
25449;SDS011;13371;52.080;5.624;2023-05-21T04:47:38;5.82;;;3.90;;
25449;SDS011;13371;52.080;5.624;2023-05-21T04:50:03;5.93;;;3.35;;
25449;SDS011;13371;52.080;5.624;2023-05-21T04:52:30;8.57;;;4.55;;
25449;SDS011;13371;52.080;5.624;2023-05-21T04:54:55;6.30;;;4.10;;
25449;SDS011;13371;52.080;5.624;2023-05-21T04:57:21;7.55;;;4.28;;
25449;SDS011;13371;52.080;5.624;2023-05-21T04:59:48;7.97;;;4.05;;
25449;SDS011;13371;52.080;5.624;2023-05-21T05:02:14;5.88;;;3.72;;
25449;SDS011;13371;52.080;5.624;2023-05-21T05:04:40;8.20;;;4.10;;
25449;SDS011;13371;52.080;5.624;2023-05-21T05:07:07;7.88;;;4.13;;
25449;SDS011;13371;52.080;5.624;2023-05-21T05:09:33;6.75;;;4.07;;
25449;SDS011;13371;52.080;5.624;2023-05-21T05:11:59;6.53;;;4.07;;
25449;SDS011;13371;52.080;5.624;2023-05-21T05:14:24;9.80;;;4.05;;
25449;SDS011;13371;52.080;5.624;2023-05-21T05:16:50;8.38;;;4.28;;
25449;SDS011;13371;52.080;5.624;2023-05-21T05:19:16;8.32;;;4.22;;
25449;SDS011;13371;52.080;5.624;2023-05-21T05:21:41;6.32;;;4.00;;
25449;SDS011;13371;52.080;5.624;2023-05-21T05:24:07;7.40;;;4.30;;
25449;SDS011;13371;52.080;5.624;2023-05-21T05:26:32;8.25;;;4.40;;
25449;SDS011;13371;52.080;5.624;2023-05-21T05:28:58;9.48;;;4.40;;
25449;SDS011;13371;52.080;5.624;2023-05-21T05:31:23;7.60;;;4.47;;
25449;SDS011;13371;52.080;5.624;2023-05-21T05:33:49;7.85;;;3.83;;
25449;SDS011;13371;52.080;5.624;2023-05-21T05:36:15;6.10;;;4.03;;
25449;SDS011;13371;52.080;5.624;2023-05-21T05:38:40;7.50;;;4.50;;
25449;SDS011;13371;52.080;5.624;2023-05-21T05:41:06;7.57;;;4.05;;
25449;SDS011;13371;52.080;5.624;2023-05-21T05:43:31;6.03;;;3.72;;
25449;SDS011;13371;52.080;5.624;2023-05-21T05:45:57;7.28;;;4.55;;
25449;SDS011;13371;52.080;5.624;2023-05-21T05:48:22;7.45;;;4.28;;
25449;SDS011;13371;52.080;5.624;2023-05-21T05:50:48;7.53;;;4.00;;
25449;SDS011;13371;52.080;5.624;2023-05-21T05:53:14;8.88;;;4.50;;
25449;SDS011;13371;52.080;5.624;2023-05-21T05:55:40;7.90;;;4.28;;
25449;SDS011;13371;52.080;5.624;2023-05-21T05:58:05;7.68;;;3.88;;
25449;SDS011;13371;52.080;5.624;2023-05-21T06:00:31;7.95;;;4.20;;
25449;SDS011;13371;52.080;5.624;2023-05-21T06:02:57;8.23;;;4.38;;
25449;SDS011;13371;52.080;5.624;2023-05-21T06:05:22;6.80;;;4.07;;
25449;SDS011;13371;52.080;5.624;2023-05-21T06:07:48;6.97;;;3.95;;
25449;SDS011;13371;52.080;5.624;2023-05-21T06:10:13;8.07;;;4.35;;
25449;SDS011;13371;52.080;5.624;2023-05-21T06:12:39;11.45;;;5.00;;
25449;SDS011;13371;52.080;5.624;2023-05-21T06:15:05;10.60;;;4.53;;
25449;SDS011;13371;52.080;5.624;2023-05-21T06:17:31;8.77;;;4.43;;
25449;SDS011;13371;52.080;5.624;2023-05-21T06:19:56;6.18;;;4.30;;
25449;SDS011;13371;52.080;5.624;2023-05-21T06:22:22;8.02;;;4.25;;
25449;SDS011;13371;52.080;5.624;2023-05-21T06:24:48;6.75;;;4.20;;
25449;SDS011;13371;52.080;5.624;2023-05-21T06:27:14;6.68;;;4.22;;
25449;SDS011;13371;52.080;5.624;2023-05-21T06:29:40;6.93;;;4.28;;
25449;SDS011;13371;52.080;5.624;2023-05-21T06:32:06;7.03;;;3.95;;
25449;SDS011;13371;52.080;5.624;2023-05-21T06:34:32;9.55;;;4.68;;
25449;SDS011;13371;52.080;5.624;2023-05-21T06:36:58;10.10;;;4.50;;
25449;SDS011;13371;52.080;5.624;2023-05-21T06:39:23;6.75;;;4.28;;
25449;SDS011;13371;52.080;5.624;2023-05-21T06:41:51;9.55;;;4.25;;
25449;SDS011;13371;52.080;5.624;2023-05-21T06:44:16;10.85;;;4.85;;
25449;SDS011;13371;52.080;5.624;2023-05-21T06:46:42;8.15;;;4.53;;
25449;SDS011;13371;52.080;5.624;2023-05-21T06:49:08;10.75;;;4.38;;
25449;SDS011;13371;52.080;5.624;2023-05-21T06:51:35;8.73;;;4.97;;
25449;SDS011;13371;52.080;5.624;2023-05-21T06:54:01;10.07;;;5.03;;
25449;SDS011;13371;52.080;5.624;2023-05-21T06:56:27;8.65;;;4.18;;
25449;SDS011;13371;52.080;5.624;2023-05-21T06:58:53;8.35;;;5.05;;
25449;SDS011;13371;52.080;5.624;2023-05-21T07:01:19;7.70;;;4.38;;
25449;SDS011;13371;52.080;5.624;2023-05-21T07:03:46;6.57;;;4.30;;
25449;SDS011;13371;52.080;5.624;2023-05-21T07:06:12;8.48;;;4.85;;
25449;SDS011;13371;52.080;5.624;2023-05-21T07:08:37;6.30;;;4.07;;
25449;SDS011;13371;52.080;5.624;2023-05-21T07:11:03;7.28;;;4.50;;
25449;SDS011;13371;52.080;5.624;2023-05-21T07:13:29;8.32;;;4.85;;
25449;SDS011;13371;52.080;5.624;2023-05-21T07:15:54;8.00;;;4.38;;
25449;SDS011;13371;52.080;5.624;2023-05-21T07:18:20;9.05;;;4.82;;
25449;SDS011;13371;52.080;5.624;2023-05-21T07:20:45;8.60;;;4.55;;
25449;SDS011;13371;52.080;5.624;2023-05-21T07:23:11;7.15;;;5.07;;
25449;SDS011;13371;52.080;5.624;2023-05-21T07:25:36;7.70;;;4.18;;
25449;SDS011;13371;52.080;5.624;2023-05-21T07:28:02;6.13;;;3.95;;
25449;SDS011;13371;52.080;5.624;2023-05-21T07:30:28;8.48;;;4.60;;
25449;SDS011;13371;52.080;5.624;2023-05-21T07:32:53;7.57;;;4.75;;
25449;SDS011;13371;52.080;5.624;2023-05-21T07:35:19;10.07;;;5.07;;
25449;SDS011;13371;52.080;5.624;2023-05-21T07:37:45;7.80;;;4.93;;
25449;SDS011;13371;52.080;5.624;2023-05-21T07:40:11;10.77;;;4.53;;
25449;SDS011;13371;52.080;5.624;2023-05-21T07:42:37;9.93;;;4.53;;
25449;SDS011;13371;52.080;5.624;2023-05-21T07:45:03;8.55;;;4.65;;
25449;SDS011;13371;52.080;5.624;2023-05-21T07:47:29;9.43;;;4.53;;
25449;SDS011;13371;52.080;5.624;2023-05-21T07:49:54;9.77;;;4.85;;
25449;SDS011;13371;52.080;5.624;2023-05-21T07:52:20;8.32;;;4.57;;
25449;SDS011;13371;52.080;5.624;2023-05-21T07:54:46;7.57;;;4.03;;
25449;SDS011;13371;52.080;5.624;2023-05-21T07:57:11;8.00;;;4.32;;
25449;SDS011;13371;52.080;5.624;2023-05-21T07:59:37;9.82;;;4.47;;
25449;SDS011;13371;52.080;5.624;2023-05-21T08:02:02;9.18;;;4.40;;
25449;SDS011;13371;52.080;5.624;2023-05-21T08:04:28;8.70;;;4.28;;
25449;SDS011;13371;52.080;5.624;2023-05-21T08:06:53;7.65;;;4.28;;
25449;SDS011;13371;52.080;5.624;2023-05-21T08:09:20;7.75;;;4.30;;
25449;SDS011;13371;52.080;5.624;2023-05-21T08:11:45;10.38;;;4.60;;
25449;SDS011;13371;52.080;5.624;2023-05-21T08:14:11;8.85;;;5.00;;
25449;SDS011;13371;52.080;5.624;2023-05-21T08:16:37;9.35;;;5.22;;
25449;SDS011;13371;52.080;5.624;2023-05-21T08:19:02;10.48;;;4.70;;
25449;SDS011;13371;52.080;5.624;2023-05-21T08:21:28;7.15;;;4.75;;
25449;SDS011;13371;52.080;5.624;2023-05-21T08:23:54;8.88;;;4.75;;
25449;SDS011;13371;52.080;5.624;2023-05-21T08:26:19;11.65;;;5.18;;
25449;SDS011;13371;52.080;5.624;2023-05-21T08:28:45;7.50;;;3.97;;
25449;SDS011;13371;52.080;5.624;2023-05-21T08:31:11;8.95;;;4.78;;
25449;SDS011;13371;52.080;5.624;2023-05-21T08:33:36;11.45;;;4.85;;
25449;SDS011;13371;52.080;5.624;2023-05-21T08:36:06;9.10;;;4.97;;
25449;SDS011;13371;52.080;5.624;2023-05-21T08:38:32;10.57;;;4.93;;
25449;SDS011;13371;52.080;5.624;2023-05-21T08:40:58;8.77;;;4.60;;
25449;SDS011;13371;52.080;5.624;2023-05-21T08:43:25;10.60;;;4.45;;
25449;SDS011;13371;52.080;5.624;2023-05-21T08:45:52;7.97;;;4.72;;
25449;SDS011;13371;52.080;5.624;2023-05-21T08:48:19;7.25;;;4.28;;
25449;SDS011;13371;52.080;5.624;2023-05-21T08:50:47;9.27;;;4.55;;
25449;SDS011;13371;52.080;5.624;2023-05-21T08:53:15;9.82;;;4.45;;
25449;SDS011;13371;52.080;5.624;2023-05-21T08:55:41;7.25;;;4.43;;
25449;SDS011;13371;52.080;5.624;2023-05-21T08:58:07;10.13;;;4.60;;
25449;SDS011;13371;52.080;5.624;2023-05-21T09:00:34;8.13;;;5.00;;
25449;SDS011;13371;52.080;5.624;2023-05-21T09:03:00;8.13;;;4.80;;
25449;SDS011;13371;52.080;5.624;2023-05-21T09:05:31;8.30;;;4.57;;
25449;SDS011;13371;52.080;5.624;2023-05-21T09:07:59;9.55;;;4.50;;
25449;SDS011;13371;52.080;5.624;2023-05-21T09:10:35;7.68;;;4.65;;
25449;SDS011;13371;52.080;5.624;2023-05-21T09:13:13;6.90;;;4.05;;
25449;SDS011;13371;52.080;5.624;2023-05-21T09:15:41;7.35;;;4.30;;
25449;SDS011;13371;52.080;5.624;2023-05-21T09:18:07;7.93;;;4.07;;
25449;SDS011;13371;52.080;5.624;2023-05-21T09:20:33;6.20;;;4.05;;
25449;SDS011;13371;52.080;5.624;2023-05-21T09:23:01;9.13;;;4.05;;
25449;SDS011;13371;52.080;5.624;2023-05-21T09:25:28;8.73;;;4.55;;
25449;SDS011;13371;52.080;5.624;2023-05-21T09:27:55;6.00;;;4.18;;
25449;SDS011;13371;52.080;5.624;2023-05-21T09:30:21;7.32;;;3.88;;
25449;SDS011;13371;52.080;5.624;2023-05-21T09:32:51;6.68;;;4.30;;
25449;SDS011;13371;52.080;5.624;2023-05-21T09:35:20;6.43;;;4.13;;
25449;SDS011;13371;52.080;5.624;2023-05-21T09:37:47;6.80;;;3.90;;
25449;SDS011;13371;52.080;5.624;2023-05-21T09:42:49;6.78;;;3.97;;
25449;SDS011;13371;52.080;5.624;2023-05-21T09:45:20;7.03;;;4.18;;
25449;SDS011;13371;52.080;5.624;2023-05-21T09:47:47;7.15;;;3.88;;
25449;SDS011;13371;52.080;5.624;2023-05-21T09:50:34;6.53;;;3.60;;
25449;SDS011;13371;52.080;5.624;2023-05-21T09:53:00;8.20;;;4.38;;
25449;SDS011;13371;52.080;5.624;2023-05-21T09:55:25;6.18;;;3.95;;
25449;SDS011;13371;52.080;5.624;2023-05-21T09:57:52;7.18;;;4.05;;
25449;SDS011;13371;52.080;5.624;2023-05-21T10:00:26;6.70;;;4.15;;
25449;SDS011;13371;52.080;5.624;2023-05-21T10:02:56;8.35;;;3.97;;
25449;SDS011;13371;52.080;5.624;2023-05-21T10:05:25;8.98;;;3.90;;
25449;SDS011;13371;52.080;5.624;2023-05-21T10:08:01;7.55;;;4.15;;
25449;SDS011;13371;52.080;5.624;2023-05-21T10:10:29;6.65;;;4.20;;
25449;SDS011;13371;52.080;5.624;2023-05-21T10:13:05;8.13;;;4.10;;
25449;SDS011;13371;52.080;5.624;2023-05-21T10:15:45;6.63;;;3.97;;
25449;SDS011;13371;52.080;5.624;2023-05-21T10:18:14;9.70;;;3.92;;
25449;SDS011;13371;52.080;5.624;2023-05-21T10:20:42;6.32;;;4.55;;
25449;SDS011;13371;52.080;5.624;2023-05-21T10:23:08;8.25;;;4.40;;
25449;SDS011;13371;52.080;5.624;2023-05-21T10:25:34;6.93;;;4.22;;
25449;SDS011;13371;52.080;5.624;2023-05-21T10:28:00;8.80;;;4.70;;
25449;SDS011;13371;52.080;5.624;2023-05-21T10:30:27;6.07;;;3.83;;
25449;SDS011;13371;52.080;5.624;2023-05-21T10:32:54;9.05;;;5.80;;
25449;SDS011;13371;52.080;5.624;2023-05-21T10:35:20;12.93;;;7.30;;
25449;SDS011;13371;52.080;5.624;2023-05-21T10:37:47;10.93;;;5.72;;
25449;SDS011;13371;52.080;5.624;2023-05-21T10:40:14;13.00;;;6.05;;
25449;SDS011;13371;52.080;5.624;2023-05-21T10:48:04;12.60;;;7.82;;
25449;SDS011;13371;52.080;5.624;2023-05-21T10:53:52;13.60;;;8.02;;
25449;SDS011;13371;52.080;5.624;2023-05-21T10:56:49;12.63;;;7.88;;
25449;SDS011;13371;52.080;5.624;2023-05-21T11:02:10;11.80;;;7.45;;
25449;SDS011;13371;52.080;5.624;2023-05-21T11:04:39;15.68;;;7.60;;
25449;SDS011;13371;52.080;5.624;2023-05-21T11:20:06;12.38;;;6.93;;
25449;SDS011;13371;52.080;5.624;2023-05-21T11:22:40;9.95;;;6.72;;
25449;SDS011;13371;52.080;5.624;2023-05-21T11:25:06;10.02;;;6.47;;
25449;SDS011;13371;52.080;5.624;2023-05-21T11:30:08;13.07;;;7.07;;
25449;SDS011;13371;52.080;5.624;2023-05-21T11:32:38;9.50;;;6.32;;
25449;SDS011;13371;52.080;5.624;2023-05-21T11:35:26;11.48;;;6.97;;
25449;SDS011;13371;52.080;5.624;2023-05-21T11:37:55;9.23;;;6.45;;
25449;SDS011;13371;52.080;5.624;2023-05-21T11:40:24;10.98;;;7.53;;
25449;SDS011;13371;52.080;5.624;2023-05-21T11:42:54;10.57;;;6.35;;
25449;SDS011;13371;52.080;5.624;2023-05-21T11:45:21;10.43;;;6.95;;
25449;SDS011;13371;52.080;5.624;2023-05-21T11:47:55;12.27;;;7.50;;
25449;SDS011;13371;52.080;5.624;2023-05-21T11:50:21;10.45;;;7.50;;
25449;SDS011;13371;52.080;5.624;2023-05-21T11:52:47;12.35;;;7.10;;
25449;SDS011;13371;52.080;5.624;2023-05-21T11:55:14;9.23;;;6.38;;
25449;SDS011;13371;52.080;5.624;2023-05-21T11:57:40;12.63;;;6.50;;
25449;SDS011;13371;52.080;5.624;2023-05-21T12:00:11;12.65;;;7.00;;
25449;SDS011;13371;52.080;5.624;2023-05-21T12:02:43;11.75;;;6.53;;
25449;SDS011;13371;52.080;5.624;2023-05-21T12:05:12;10.68;;;6.38;;
25449;SDS011;13371;52.080;5.624;2023-05-21T12:07:37;11.13;;;6.60;;
25449;SDS011;13371;52.080;5.624;2023-05-21T12:10:03;8.20;;;6.07;;
25449;SDS011;13371;52.080;5.624;2023-05-21T12:12:30;12.63;;;7.35;;
25449;SDS011;13371;52.080;5.624;2023-05-21T12:14:56;13.88;;;7.00;;
25449;SDS011;13371;52.080;5.624;2023-05-21T12:17:23;11.27;;;6.07;;
25449;SDS011;13371;52.080;5.624;2023-05-21T12:19:53;11.43;;;6.28;;
25449;SDS011;13371;52.080;5.624;2023-05-21T12:22:23;10.13;;;5.93;;
25449;SDS011;13371;52.080;5.624;2023-05-21T12:24:49;10.00;;;6.50;;
25449;SDS011;13371;52.080;5.624;2023-05-21T12:27:15;11.80;;;7.00;;
25449;SDS011;13371;52.080;5.624;2023-05-21T12:29:42;11.70;;;6.35;;
25449;SDS011;13371;52.080;5.624;2023-05-21T12:32:09;10.48;;;6.38;;
25449;SDS011;13371;52.080;5.624;2023-05-21T12:34:41;9.70;;;6.22;;
25449;SDS011;13371;52.080;5.624;2023-05-21T12:37:13;8.25;;;5.93;;
25449;SDS011;13371;52.080;5.624;2023-05-21T12:39:46;13.95;;;6.03;;
25449;SDS011;13371;52.080;5.624;2023-05-21T12:42:13;13.73;;;6.38;;
25449;SDS011;13371;52.080;5.624;2023-05-21T12:44:43;12.10;;;6.18;;
25449;SDS011;13371;52.080;5.624;2023-05-21T12:47:10;11.90;;;5.68;;
25449;SDS011;13371;52.080;5.624;2023-05-21T12:49:40;13.15;;;6.30;;
25449;SDS011;13371;52.080;5.624;2023-05-21T12:52:11;9.65;;;6.47;;
25449;SDS011;13371;52.080;5.624;2023-05-21T12:54:38;9.95;;;6.40;;
25449;SDS011;13371;52.080;5.624;2023-05-21T13:00:05;7.57;;;5.63;;
25449;SDS011;13371;52.080;5.624;2023-05-21T13:02:33;10.32;;;5.93;;
25449;SDS011;13371;52.080;5.624;2023-05-21T13:05:09;9.77;;;6.00;;
25449;SDS011;13371;52.080;5.624;2023-05-21T13:07:41;10.68;;;6.40;;
25449;SDS011;13371;52.080;5.624;2023-05-21T13:10:08;9.95;;;5.82;;
25449;SDS011;13371;52.080;5.624;2023-05-21T13:12:34;8.15;;;5.38;;
25449;SDS011;13371;52.080;5.624;2023-05-21T13:15:00;10.68;;;5.80;;
25449;SDS011;13371;52.080;5.624;2023-05-21T13:17:27;10.63;;;5.85;;
25449;SDS011;13371;52.080;5.624;2023-05-21T13:20:04;11.57;;;6.05;;
25449;SDS011;13371;52.080;5.624;2023-05-21T13:22:36;8.65;;;5.35;;
25449;SDS011;13371;52.080;5.624;2023-05-21T13:25:10;7.55;;;5.30;;
25449;SDS011;13371;52.080;5.624;2023-05-21T13:27:39;9.15;;;5.57;;
25449;SDS011;13371;52.080;5.624;2023-05-21T13:30:05;10.10;;;5.93;;
25449;SDS011;13371;52.080;5.624;2023-05-21T13:32:32;10.60;;;6.55;;
25449;SDS011;13371;52.080;5.624;2023-05-21T13:34:58;14.35;;;6.00;;
25449;SDS011;13371;52.080;5.624;2023-05-21T13:37:24;8.43;;;5.60;;
25449;SDS011;13371;52.080;5.624;2023-05-21T13:39:50;10.70;;;5.88;;
25449;SDS011;13371;52.080;5.624;2023-05-21T13:42:15;9.75;;;6.38;;
25449;SDS011;13371;52.080;5.624;2023-05-21T13:44:41;9.60;;;5.82;;
25449;SDS011;13371;52.080;5.624;2023-05-21T13:47:07;10.05;;;5.90;;
25449;SDS011;13371;52.080;5.624;2023-05-21T13:49:37;9.60;;;6.28;;
25449;SDS011;13371;52.080;5.624;2023-05-21T13:52:07;12.43;;;6.03;;
25449;SDS011;13371;52.080;5.624;2023-05-21T14:50:04;10.15;;;6.68;;
25449;SDS011;13371;52.080;5.624;2023-05-21T14:56:43;12.18;;;6.25;;
25449;SDS011;13371;52.080;5.624;2023-05-21T15:06:50;10.68;;;6.70;;
25449;SDS011;13371;52.080;5.624;2023-05-21T15:32:30;12.52;;;6.55;;
25449;SDS011;13371;52.080;5.624;2023-05-21T15:47:41;10.57;;;6.45;;
25449;SDS011;13371;52.080;5.624;2023-05-21T15:53:49;8.77;;;6.05;;
25449;SDS011;13371;52.080;5.624;2023-05-21T15:56:27;10.52;;;6.70;;
25449;SDS011;13371;52.080;5.624;2023-05-21T15:58:56;14.05;;;6.80;;
25449;SDS011;13371;52.080;5.624;2023-05-21T16:01:25;10.95;;;6.80;;
25449;SDS011;13371;52.080;5.624;2023-05-21T16:06:47;9.70;;;6.85;;
25449;SDS011;13371;52.080;5.624;2023-05-21T16:09:21;10.95;;;6.43;;
25449;SDS011;13371;52.080;5.624;2023-05-21T16:11:47;13.70;;;6.25;;
25449;SDS011;13371;52.080;5.624;2023-05-21T16:14:12;9.57;;;6.57;;
25449;SDS011;13371;52.080;5.624;2023-05-21T16:16:38;11.82;;;6.55;;
25449;SDS011;13371;52.080;5.624;2023-05-21T16:19:04;11.25;;;7.28;;
25449;SDS011;13371;52.080;5.624;2023-05-21T16:21:30;10.35;;;6.63;;
25449;SDS011;13371;52.080;5.624;2023-05-21T16:23:56;14.57;;;7.50;;
25449;SDS011;13371;52.080;5.624;2023-05-21T16:26:21;13.40;;;6.82;;
25449;SDS011;13371;52.080;5.624;2023-05-21T16:28:47;12.52;;;7.13;;
25449;SDS011;13371;52.080;5.624;2023-05-21T16:31:13;9.27;;;6.40;;
25449;SDS011;13371;52.080;5.624;2023-05-21T16:33:38;14.52;;;6.95;;
25449;SDS011;13371;52.080;5.624;2023-05-21T16:36:04;12.55;;;7.07;;
25449;SDS011;13371;52.080;5.624;2023-05-21T16:38:30;10.73;;;7.57;;
25449;SDS011;13371;52.080;5.624;2023-05-21T16:40:55;10.73;;;7.20;;
25449;SDS011;13371;52.080;5.624;2023-05-21T16:43:21;13.40;;;7.07;;
25449;SDS011;13371;52.080;5.624;2023-05-21T16:45:47;10.52;;;6.90;;
25449;SDS011;13371;52.080;5.624;2023-05-21T16:48:13;12.05;;;7.10;;
25449;SDS011;13371;52.080;5.624;2023-05-21T16:50:40;11.80;;;7.30;;
25449;SDS011;13371;52.080;5.624;2023-05-21T16:53:06;9.82;;;7.32;;
25449;SDS011;13371;52.080;5.624;2023-05-21T16:55:34;10.30;;;6.85;;
25449;SDS011;13371;52.080;5.624;2023-05-21T16:58:00;10.10;;;6.95;;
25449;SDS011;13371;52.080;5.624;2023-05-21T17:00:27;15.05;;;7.03;;
25449;SDS011;13371;52.080;5.624;2023-05-21T17:02:53;16.70;;;7.32;;
25449;SDS011;13371;52.080;5.624;2023-05-21T17:05:18;11.52;;;7.45;;